Morinville, Canada
Current Conditions -  °F | °C
As of 2:00 AM on Saturday 20 Dec 2014 (Local Time) from CYED Reporting Station
Few Clouds Few Clouds  
Wind Chill: 14°   Ceiling: Unl
Heat Index: 14°   Visibility: 4mi
Dew Point: 10°   Wind: 0mph
Humidity: 86%   Direction: NA
Pressure: 29.68"   Gusts: NA
Location:  53.8°N, 113.65°W
Report Text: CYED 200900Z AUTO 00000KT 4SM FEW085 M10/M12 A2968 RMK SLP092
Loading
Personal Weather Stations






























Interactive Weather Map New forecast layout! Learn more

10-Day Weather Forecast

Advertisements
Track Severe Weather on mobile